Time;durP1;ratioP1;P1;durP2;ratioP2;P2;SDS_P1;SDS_P2;PMS_P1;PMS_P2;Temp;Humidity;BMP_temperature;BMP_pressure;BME280_temperature;BME280_humidity;BME280_pressure;Samples;Min_cycle;Max_cycle;Signal;HPM_P1;HPM_P2
2022/11/21 00:01:28;;;;;;;3.15;0.10;;;17.10;53.10;;;;;;5090786;28;20533;-66
2022/11/21 00:03:55;;;;;;;1.05;0.20;;;17.10;53.10;;;;;;5098903;27;20050;-66
2022/11/21 00:06:22;;;;;;;1.08;0.10;;;17.00;53.00;;;;;;5131281;27;20083;-66
2022/11/21 00:08:51;;;;;;;5.57;0.32;;;17.10;53.10;;;;;;5131379;27;20118;-66
2022/11/21 00:11:18;;;;;;;5.78;0.10;;;17.00;53.00;;;;;;5087226;28;20595;-67
2022/11/21 00:13:45;;;;;;;2.20;0.35;;;17.00;53.00;;;;;;5110893;28;20041;-68
2022/11/21 00:16:14;;;;;;;1.85;0.10;;;17.00;53.10;;;;;;5092510;28;20416;-66
2022/11/21 00:18:42;;;;;;;2.75;0.20;;;17.00;53.10;;;;;;5110366;28;20043;-68
2022/11/21 00:21:15;;;;;;;2.40;0.20;;;17.00;53.10;;;;;;5110626;28;20046;-67
2022/11/21 00:23:42;;;;;;;1.73;0.10;;;17.00;53.10;;;;;;5110375;28;20047;-66
2022/11/21 00:26:12;;;;;;;1.98;0.20;;;17.00;53.10;;;;;;5110427;28;20043;-66
2022/11/21 00:28:39;;;;;;;1.50;0.60;;;17.00;53.10;;;;;;5092136;28;20081;-67
2022/11/21 00:31:06;;;;;;;1.15;0.20;;;17.00;53.10;;;;;;5110566;28;20508;-66
2022/11/21 00:33:34;;;;;;;3.60;0.88;;;17.00;53.20;;;;;;5091669;28;20052;-65
2022/11/21 00:36:07;;;;;;;5.55;1.27;;;17.00;53.20;;;;;;5110375;28;20028;-66
2022/11/21 00:38:34;;;;;;;3.45;0.52;;;17.00;53.20;;;;;;5110380;28;20048;-66
2022/11/21 00:41:01;;;;;;;5.28;0.50;;;16.90;53.20;;;;;;5110421;28;20507;-65
2022/11/21 00:43:29;;;;;;;1.90;0.17;;;17.00;53.20;;;;;;5110124;28;20491;-66
2022/11/21 00:45:57;;;;;;;2.08;0.65;;;17.00;53.30;;;;;;5104489;28;20044;-67
2022/11/21 00:48:24;;;;;;;1.05;0.20;;;16.90;53.20;;;;;;5110457;28;20524;-65
2022/11/21 00:50:51;;;;;;;1.15;0.20;;;16.90;53.20;;;;;;5110479;28;20134;-65
2022/11/21 00:53:18;;;;;;;5.03;0.22;;;16.90;53.20;;;;;;5109933;28;20507;-66
2022/11/21 00:55:45;;;;;;;5.65;0.20;;;16.90;53.20;;;;;;5110121;28;20036;-66
2022/11/21 00:58:12;;;;;;;1.88;0.10;;;16.90;53.20;;;;;;5109980;28;20036;-65
2022/11/21 01:00:40;;;;;;;2.10;0.20;;;16.90;53.20;;;;;;5109589;28;20051;-66
2022/11/21 01:03:07;;;;;;;1.52;0.45;;;16.90;53.20;;;;;;5109604;28;20135;-66
2022/11/21 01:05:34;;;;;;;1.92;0.32;;;16.90;53.60;;;;;;5109735;28;20051;-65
2022/11/21 01:08:01;;;;;;;3.75;0.20;;;16.90;53.30;;;;;;5109673;28;20050;-65
2022/11/21 01:10:29;;;;;;;0.80;0.73;;;16.90;53.20;;;;;;5091612;28;20415;-65
2022/11/21 01:12:56;;;;;;;4.05;0.50;;;16.90;53.20;;;;;;5109548;28;20048;-65
2022/11/21 01:15:23;;;;;;;2.15;0.50;;;16.90;53.30;;;;;;5109420;28;20036;-65
2022/11/21 01:17:51;;;;;;;1.40;0.30;;;16.90;53.30;;;;;;5109793;28;20139;-65
2022/11/21 01:20:18;;;;;;;3.28;0.15;;;16.90;53.30;;;;;;5109695;28;20036;-65
2022/11/21 01:22:45;;;;;;;1.85;0.57;;;16.90;53.30;;;;;;5109619;28;20621;-64
2022/11/21 01:25:12;;;;;;;2.83;0.20;;;16.90;53.30;;;;;;5091174;28;20163;-66
2022/11/21 01:27:39;;;;;;;2.72;0.45;;;16.90;53.30;;;;;;5109557;28;20146;-65
2022/11/21 01:30:07;;;;;;;2.65;0.60;;;16.90;53.30;;;;;;5109201;28;20500;-66
2022/11/21 01:32:34;;;;;;;2.60;0.35;;;16.90;53.30;;;;;;5108629;28;20036;-64
2022/11/21 01:35:02;;;;;;;8.98;0.55;;;16.90;53.30;;;;;;5089344;28;20048;-66
2022/11/21 01:37:29;;;;;;;1.80;0.10;;;16.90;53.40;;;;;;5070770;28;20089;-66
2022/11/21 01:39:56;;;;;;;2.47;0.40;;;16.80;53.30;;;;;;5088941;28;20049;-65
2022/11/21 01:42:23;;;;;;;2.03;0.20;;;16.80;53.30;;;;;;5088873;28;20058;-65
2022/11/21 01:44:53;;;;;;;1.15;0.10;;;16.80;53.30;;;;;;5107054;28;20048;-62
2022/11/21 01:47:22;;;;;;;1.40;0.10;;;16.80;53.30;;;;;;5109490;28;20055;-68
2022/11/21 01:49:50;;;;;;;1.90;0.40;;;16.80;53.40;;;;;;5109157;28;20043;-66
2022/11/21 01:52:24;;;;;;;2.75;0.17;;;16.80;53.40;;;;;;5109004;28;20038;-65
2022/11/21 01:54:55;;;;;;;0.98;0.17;;;16.80;53.40;;;;;;5108975;28;20105;-63
2022/11/21 01:57:27;;;;;;;4.43;0.35;;;16.80;53.40;;;;;;5109217;28;20039;-66
2022/11/21 01:59:59;;;;;;;0.80;0.10;;;16.80;53.40;;;;;;5108671;28;20048;-66
2022/11/21 02:02:31;;;;;;;7.68;0.30;;;16.80;53.40;;;;;;5109142;28;20040;-67
2022/11/21 02:05:00;;;;;;;1.60;0.17;;;16.80;53.50;;;;;;5119115;27;20396;-65
2022/11/21 02:07:32;;;;;;;4.25;0.10;;;16.80;53.50;;;;;;5129601;27;20122;-65
2022/11/21 02:10:01;;;;;;;1.98;0.43;;;16.80;53.50;;;;;;5129328;27;20047;-65
2022/11/21 02:12:32;;;;;;;1.67;0.10;;;16.80;53.50;;;;;;5109943;28;20046;-65
2022/11/21 02:14:59;;;;;;;1.60;0.10;;;16.80;53.50;;;;;;5108313;28;20120;-65
2022/11/21 02:17:29;;;;;;;1.00;0.10;;;16.80;53.50;;;;;;5103408;28;20044;-65
2022/11/21 02:19:58;;;;;;;5.53;0.68;;;16.80;53.50;;;;;;5088221;28;20119;-64
2022/11/21 02:22:35;;;;;;;3.75;0.55;;;16.80;53.50;;;;;;5088470;28;20039;-63
2022/11/21 02:25:06;;;;;;;1.30;0.30;;;16.80;53.60;;;;;;5088096;28;20099;-65
2022/11/21 02:27:34;;;;;;;4.40;0.20;;;16.80;53.50;;;;;;5088405;28;20077;-64
2022/11/21 02:30:03;;;;;;;6.22;1.20;;;16.80;53.50;;;;;;5087998;28;20044;-66
2022/11/21 02:32:34;;;;;;;1.70;0.73;;;16.80;53.50;;;;;;5069906;28;20044;-64
2022/11/21 02:35:01;;;;;;;2.35;0.63;;;16.80;53.60;;;;;;5095827;28;20096;-65
2022/11/21 02:37:28;;;;;;;1.55;0.15;;;16.80;53.50;;;;;;5108748;28;20044;-65
2022/11/21 02:39:57;;;;;;;0.55;0.45;;;16.80;53.50;;;;;;5108537;28;20516;-65
2022/11/21 02:42:33;;;;;;;5.28;0.52;;;16.80;53.50;;;;;;5108483;28;20049;-65
2022/11/21 02:45:10;;;;;;;2.33;2.08;;;16.80;53.50;;;;;;5068097;28;20033;-65
2022/11/21 02:47:39;;;;;;;4.95;1.85;;;16.80;53.50;;;;;;5068364;28;20045;-65
2022/11/21 02:50:12;;;;;;;1.95;0.20;;;16.80;53.50;;;;;;5068140;28;20045;-63
2022/11/21 02:52:40;;;;;;;3.17;0.60;;;16.80;53.60;;;;;;5067972;28;20139;-65
2022/11/21 02:55:08;;;;;;;5.20;0.10;;;16.80;53.60;;;;;;5068734;28;20044;-65
2022/11/21 02:57:36;;;;;;;1.20;0.10;;;16.80;53.50;;;;;;5068234;28;20098;-65
2022/11/21 03:00:04;;;;;;;1.98;0.55;;;16.80;53.50;;;;;;5068022;28;20041;-66
2022/11/21 03:02:32;;;;;;;2.97;0.10;;;16.80;53.50;;;;;;5067641;28;20044;-65
2022/11/21 03:04:59;;;;;;;3.35;0.35;;;16.80;53.50;;;;;;5067478;28;20587;-66
2022/11/21 03:07:26;;;;;;;1.35;0.30;;;16.80;54.10;;;;;;5067619;28;20045;-64
2022/11/21 03:09:53;;;;;;;5.53;0.28;;;16.80;53.50;;;;;;5067577;28;20040;-65
2022/11/21 03:12:20;;;;;;;6.57;0.30;;;16.80;53.60;;;;;;5067230;28;20041;-64
2022/11/21 03:14:48;;;;;;;2.42;0.45;;;16.80;53.50;;;;;;5067800;28;20045;-65
2022/11/21 03:17:15;;;;;;;0.80;0.17;;;16.80;53.50;;;;;;5067634;28;20040;-65
2022/11/21 03:19:42;;;;;;;3.22;0.52;;;16.80;53.50;;;;;;5067756;28;20157;-65
2022/11/21 03:22:10;;;;;;;4.25;0.50;;;16.80;53.50;;;;;;5067573;28;20047;-64
2022/11/21 03:24:37;;;;;;;2.80;0.10;;;16.80;53.50;;;;;;5070706;28;20493;-65
2022/11/21 03:27:04;;;;;;;6.93;2.35;;;16.80;53.50;;;;;;5070835;28;20048;-65
2022/11/21 03:29:31;;;;;;;3.88;0.10;;;16.80;53.50;;;;;;5071121;28;20071;-62
2022/11/21 03:31:59;;;;;;;3.80;0.32;;;16.80;53.50;;;;;;5071127;28;20052;-66
2022/11/21 03:34:26;;;;;;;4.07;0.73;;;16.80;53.50;;;;;;5070975;28;20068;-65
2022/11/21 03:36:53;;;;;;;4.47;0.85;;;16.70;53.40;;;;;;5071083;28;20799;-65
2022/11/21 03:39:20;;;;;;;5.35;0.10;;;16.80;53.50;;;;;;5070626;28;20045;-67
2022/11/21 03:41:48;;;;;;;2.30;0.73;;;16.70;53.50;;;;;;5070772;28;20068;-66
2022/11/21 03:44:14;;;;;;;3.60;0.20;;;16.80;53.50;;;;;;5100772;28;20055;-65
2022/11/21 03:46:43;;;;;;;2.72;0.10;;;16.80;53.50;;;;;;5111639;28;20126;-65
2022/11/21 03:49:12;;;;;;;3.30;0.40;;;16.70;53.50;;;;;;5111669;28;20508;-69
2022/11/21 03:51:40;;;;;;;2.95;0.50;;;16.70;53.50;;;;;;5093258;28;20047;-65
2022/11/21 03:54:07;;;;;;;4.97;0.30;;;16.70;53.50;;;;;;5103225;28;20054;-66
2022/11/21 03:56:35;;;;;;;3.50;0.20;;;16.80;53.50;;;;;;5108391;28;20043;-64
2022/11/21 03:59:03;;;;;;;2.60;0.73;;;16.70;53.50;;;;;;5091809;27;20036;-65
2022/11/21 04:01:30;;;;;;;8.15;1.05;;;16.70;53.50;;;;;;5091357;28;20533;-65
2022/11/21 04:03:57;;;;;;;1.38;0.28;;;16.70;53.50;;;;;;5093554;27;20127;-65
2022/11/21 04:06:26;;;;;;;1.95;0.55;;;16.70;53.50;;;;;;5126985;27;20465;-64
2022/11/21 04:08:53;;;;;;;3.58;0.15;;;16.70;53.50;;;;;;5131663;27;20043;-64
2022/11/21 04:11:22;;;;;;;1.67;0.22;;;16.80;53.50;;;;;;5122361;27;20054;-66
2022/11/21 04:13:49;;;;;;;3.50;0.20;;;16.70;53.50;;;;;;5111022;28;20036;-65
2022/11/21 04:16:16;;;;;;;4.57;0.95;;;16.70;53.50;;;;;;5110903;28;20032;-65
2022/11/21 04:18:43;;;;;;;5.25;0.55;;;16.70;53.50;;;;;;5110834;28;20031;-66
2022/11/21 04:21:10;;;;;;;1.55;0.10;;;16.70;53.50;;;;;;5110656;28;20126;-65
2022/11/21 04:23:38;;;;;;;1.85;0.20;;;16.70;53.50;;;;;;5110612;28;20032;-65
2022/11/21 04:26:06;;;;;;;7.13;0.90;;;16.70;53.50;;;;;;5110059;28;20065;-65
2022/11/21 04:28:33;;;;;;;3.30;0.47;;;16.70;53.50;;;;;;5110817;28;20514;-65
2022/11/21 04:31:03;;;;;;;5.15;0.47;;;16.70;53.50;;;;;;5110598;28;20128;-65
2022/11/21 04:33:30;;;;;;;0.93;0.40;;;16.70;53.50;;;;;;5110562;28;20078;-65
2022/11/21 04:35:57;;;;;;;3.60;0.22;;;16.70;53.50;;;;;;5109672;28;20055;-66
2022/11/21 04:38:24;;;;;;;2.08;0.10;;;16.70;53.50;;;;;;5110096;28;20142;-65
2022/11/21 04:40:53;;;;;;;5.50;0.40;;;16.70;53.50;;;;;;5110252;28;20043;-67
2022/11/21 04:43:20;;;;;;;6.85;0.40;;;16.70;53.50;;;;;;5099049;28;20052;-65
2022/11/21 04:45:47;;;;;;;5.95;0.95;;;16.70;53.50;;;;;;5089757;28;20032;-64
2022/11/21 04:48:14;;;;;;;2.90;0.22;;;16.70;53.60;;;;;;5089815;28;20044;-66
2022/11/21 04:50:41;;;;;;;8.18;1.05;;;16.70;53.60;;;;;;5089719;28;20349;-66
2022/11/21 04:53:08;;;;;;;4.78;0.60;;;16.70;53.60;;;;;;5106701;28;20044;-65
2022/11/21 04:55:35;;;;;;;3.70;1.13;;;16.60;53.50;;;;;;5110012;28;20042;-66
2022/11/21 04:58:03;;;;;;;7.32;0.20;;;16.60;53.50;;;;;;5110285;28;20411;-65
2022/11/21 05:00:30;;;;;;;6.13;0.20;;;16.60;53.50;;;;;;5110428;28;20044;-66
2022/11/21 05:03:02;;;;;;;5.03;1.02;;;16.60;53.50;;;;;;5109668;28;20130;-65
2022/11/21 05:05:29;;;;;;;4.72;0.38;;;16.60;53.60;;;;;;5109832;28;20035;-65
2022/11/21 05:07:56;;;;;;;3.45;0.40;;;16.60;53.60;;;;;;5109043;28;20040;-65
2022/11/21 05:10:23;;;;;;;2.53;0.20;;;16.60;53.60;;;;;;5109487;28;20078;-65
2022/11/21 05:15:43;;;;;;;5.90;0.20;;;16.60;53.60;;;;;;5109560;28;20040;-65
2022/11/21 05:18:10;;;;;;;5.00;0.30;;;16.60;53.70;;;;;;5109686;28;20050;-65
2022/11/21 05:20:37;;;;;;;2.83;0.35;;;16.60;53.70;;;;;;5109368;28;20044;-66
2022/11/21 05:23:04;;;;;;;7.25;0.60;;;16.60;53.70;;;;;;5108912;28;20039;-65
2022/11/21 05:25:31;;;;;;;4.07;0.60;;;16.60;53.70;;;;;;5109448;28;20047;-64
2022/11/21 05:27:58;;;;;;;4.05;0.50;;;16.60;53.80;;;;;;5109219;28;20050;-65
2022/11/21 05:30:25;;;;;;;1.60;0.20;;;16.60;53.70;;;;;;5106562;28;20043;-65
2022/11/21 05:32:54;;;;;;;2.63;0.40;;;16.60;53.70;;;;;;5103668;28;20047;-64
2022/11/21 05:35:21;;;;;;;1.55;0.10;;;16.60;53.70;;;;;;5109378;28;20044;-65
2022/11/21 05:37:48;;;;;;;3.00;0.20;;;16.60;53.70;;;;;;5108861;28;20471;-64
2022/11/21 05:40:15;;;;;;;7.75;0.43;;;16.60;53.70;;;;;;5108912;28;20398;-65
2022/11/21 05:45:27;;;;;;;3.75;0.38;;;16.60;53.70;;;;;;5108707;28;20070;-64
2022/11/21 05:47:56;;;;;;;2.33;0.15;;;16.60;53.70;;;;;;5109004;28;20559;-65
2022/11/21 05:50:23;;;;;;;6.82;0.73;;;16.60;53.70;;;;;;5116529;27;20049;-64
2022/11/21 05:52:50;;;;;;;2.10;0.73;;;16.60;53.70;;;;;;5113929;27;20032;-65
2022/11/21 05:55:17;;;;;;;1.52;0.35;;;16.60;53.70;;;;;;5108653;28;20043;-65
2022/11/21 05:57:44;;;;;;;4.65;0.50;;;16.60;53.60;;;;;;5108532;28;20047;-65
2022/11/21 06:00:12;;;;;;;2.75;0.65;;;16.60;53.60;;;;;;5108618;28;20485;-65
2022/11/21 06:05:24;;;;;;;4.05;0.50;;;16.60;54.20;;;;;;5128936;27;20624;-65
2022/11/21 06:07:51;;;;;;;4.35;0.55;;;16.60;53.60;;;;;;5129084;27;20039;-65
2022/11/21 06:10:18;;;;;;;3.50;0.30;;;16.60;53.60;;;;;;5128866;27;20049;-65
2022/11/21 06:12:45;;;;;;;6.90;1.30;;;16.60;53.60;;;;;;5108830;28;20043;-65
2022/11/21 06:15:12;;;;;;;1.60;0.20;;;16.60;53.60;;;;;;5108404;28;20119;-66
2022/11/21 06:17:39;;;;;;;6.50;0.20;;;16.60;53.60;;;;;;5073687;28;20075;-66
2022/11/21 06:20:08;;;;;;;1.77;0.20;;;16.60;53.60;;;;;;5107922;28;20043;-65
2022/11/21 06:22:36;;;;;;;2.83;0.82;;;16.60;53.60;;;;;;5108317;28;20040;-65
2022/11/21 06:25:04;;;;;;;3.03;0.93;;;16.60;53.60;;;;;;5108508;28;20048;-65
2022/11/21 06:27:30;;;;;;;3.50;0.38;;;16.60;53.60;;;;;;5108506;28;20055;-65
2022/11/21 06:29:57;;;;;;;1.85;0.50;;;16.60;53.60;;;;;;5108339;28;20126;-65
2022/11/21 06:32:24;;;;;;;5.93;0.40;;;16.60;53.60;;;;;;5108032;28;20515;-64
2022/11/21 06:34:51;;;;;;;2.83;0.40;;;16.70;53.70;;;;;;5107897;28;20060;-64
2022/11/21 06:37:18;;;;;;;5.60;1.17;;;16.60;53.60;;;;;;5108468;28;20119;-65
2022/11/21 06:39:47;;;;;;;5.10;0.40;;;16.60;53.60;;;;;;5108138;28;20043;-65
2022/11/21 06:42:14;;;;;;;3.58;0.63;;;16.60;53.60;;;;;;5108110;28;20051;-64
2022/11/21 06:44:41;;;;;;;6.50;0.30;;;16.60;53.60;;;;;;5108015;28;20551;-64
2022/11/21 06:47:08;;;;;;;7.38;0.55;;;16.60;53.60;;;;;;5107958;28;20147;-65
2022/11/21 06:49:35;;;;;;;3.22;0.45;;;16.60;53.60;;;;;;5107836;28;20162;-65
2022/11/21 06:52:02;;;;;;;5.97;1.42;;;16.60;53.60;;;;;;5108174;28;20496;-65
2022/11/21 06:54:29;;;;;;;3.38;0.50;;;16.60;53.60;;;;;;5108195;28;20475;-66
2022/11/21 06:56:58;;;;;;;6.82;0.30;;;16.60;53.60;;;;;;5089943;28;20050;-65
2022/11/21 06:59:25;;;;;;;4.57;0.90;;;16.60;53.60;;;;;;5111732;28;20081;-65
2022/11/21 07:01:52;;;;;;;4.30;0.68;;;16.60;53.60;;;;;;5112572;28;20126;-65
2022/11/21 07:04:19;;;;;;;4.43;0.50;;;16.60;53.60;;;;;;5112049;28;20584;-64
2022/11/21 07:06:46;;;;;;;2.88;0.20;;;16.70;53.60;;;;;;5123105;27;20392;-65
2022/11/21 07:09:13;;;;;;;6.03;0.93;;;16.60;53.60;;;;;;5073778;28;20044;-65
2022/11/21 07:11:40;;;;;;;5.55;0.45;;;16.60;53.60;;;;;;5103011;28;20495;-65
2022/11/21 07:14:07;;;;;;;3.58;0.57;;;16.60;53.60;;;;;;5111814;28;20040;-64
2022/11/21 07:16:34;;;;;;;4.57;0.10;;;16.60;53.50;;;;;;5111796;28;20475;-65
2022/11/21 07:19:01;;;;;;;5.88;0.68;;;16.60;53.50;;;;;;5111615;28;20071;-65
2022/11/21 07:21:28;;;;;;;4.68;0.50;;;16.60;53.50;;;;;;5111854;28;20503;-65
2022/11/21 07:23:55;;;;;;;6.13;1.65;;;16.60;53.50;;;;;;5111710;28;20047;-65
2022/11/21 07:26:22;;;;;;;5.57;1.33;;;16.60;53.50;;;;;;5111502;28;20036;-65
2022/11/21 07:28:49;;;;;;;4.57;1.13;;;16.60;53.50;;;;;;5111335;28;20114;-65
2022/11/21 07:31:18;;;;;;;8.30;1.70;;;16.60;53.50;;;;;;5093362;28;20044;-66
2022/11/21 07:33:45;;;;;;;3.35;0.30;;;16.70;53.60;;;;;;5130175;27;20055;-65
2022/11/21 07:36:12;;;;;;;1.52;0.20;;;16.60;53.50;;;;;;5114738;27;20043;-65
2022/11/21 07:38:40;;;;;;;4.38;0.50;;;16.60;53.50;;;;;;5133545;27;20099;-65
2022/11/21 07:41:07;;;;;;;6.05;0.45;;;16.60;53.50;;;;;;5132069;27;20042;-65
2022/11/21 07:43:34;;;;;;;0.82;0.22;;;16.60;53.50;;;;;;5131674;27;20081;-65
2022/11/21 07:46:01;;;;;;;6.05;0.77;;;16.60;53.50;;;;;;5118356;27;20043;-66
2022/11/21 07:48:29;;;;;;;3.08;0.60;;;16.60;53.40;;;;;;5110746;28;20079;-64
2022/11/21 07:50:56;;;;;;;2.58;0.50;;;16.60;53.50;;;;;;5111019;28;20047;-63
2022/11/21 07:53:23;;;;;;;3.58;0.30;;;16.60;53.50;;;;;;5111305;28;20419;-65
2022/11/21 07:55:50;;;;;;;3.88;0.90;;;16.60;54.00;;;;;;5110785;28;20043;-64
2022/11/21 07:58:18;;;;;;;3.65;0.45;;;16.60;53.50;;;;;;5090938;28;20464;-63
2022/11/21 08:00:45;;;;;;;3.13;0.45;;;16.60;53.40;;;;;;5071671;28;20055;-64
2022/11/21 08:03:13;;;;;;;3.67;0.30;;;16.60;53.40;;;;;;5090092;28;20052;-64
2022/11/21 08:05:43;;;;;;;5.55;0.52;;;16.60;53.40;;;;;;5090660;28;20500;-64
2022/11/21 08:08:11;;;;;;;6.13;1.13;;;16.60;53.40;;;;;;5090607;28;20143;-65
2022/11/21 08:10:39;;;;;;;1.85;0.30;;;16.60;53.50;;;;;;5122574;27;20039;-66
2022/11/21 08:13:06;;;;;;;3.97;0.52;;;16.60;53.50;;;;;;5110630;28;20047;-65
2022/11/21 08:15:33;;;;;;;4.20;0.40;;;16.60;53.60;;;;;;5110585;28;20035;-64
2022/11/21 08:18:07;;;;;;;5.88;0.65;;;16.60;53.60;;;;;;5110621;28;20122;-65
2022/11/21 08:20:34;;;;;;;4.78;1.05;;;16.70;53.60;;;;;;5110512;28;20523;-66
2022/11/21 08:23:03;;;;;;;6.07;0.52;;;16.70;53.50;;;;;;5110800;28;20553;-65
2022/11/21 08:25:30;;;;;;;2.83;0.60;;;16.70;53.60;;;;;;5092461;28;20139;-65
2022/11/21 08:27:58;;;;;;;5.50;0.77;;;16.70;53.50;;;;;;5110747;28;20099;-65
2022/11/21 08:30:25;;;;;;;2.20;0.25;;;16.70;53.50;;;;;;5110035;28;20047;-65
2022/11/21 08:32:52;;;;;;;5.15;0.30;;;16.70;53.50;;;;;;5110278;28;20123;-65
2022/11/21 08:35:19;;;;;;;7.22;0.50;;;16.70;53.40;;;;;;5110475;28;20472;-66
2022/11/21 08:37:46;;;;;;;5.82;0.57;;;16.80;53.40;;;;;;5092213;28;20039;-66
2022/11/21 08:40:15;;;;;;;3.53;0.35;;;16.80;53.40;;;;;;5110295;28;20556;-65
2022/11/21 08:42:42;;;;;;;5.43;0.77;;;16.80;53.30;;;;;;5110228;28;20044;-65
2022/11/21 08:45:10;;;;;;;5.68;1.45;;;16.80;53.30;;;;;;5088845;28;20039;-65
2022/11/21 08:47:37;;;;;;;1.83;0.40;;;16.80;53.30;;;;;;5089553;28;20044;-66
2022/11/21 08:50:05;;;;;;;6.07;0.80;;;16.80;53.20;;;;;;5089672;28;20462;-66
2022/11/21 08:52:32;;;;;;;3.25;0.55;;;16.80;53.20;;;;;;5101685;28;20043;-65
2022/11/21 08:54:59;;;;;;;9.15;0.60;;;16.80;53.10;;;;;;5109762;28;20047;-64
2022/11/21 08:57:27;;;;;;;4.25;0.40;;;16.80;53.10;;;;;;5110138;28;20048;-64
2022/11/21 08:59:54;;;;;;;3.45;0.82;;;16.90;53.10;;;;;;5109631;28;20818;-65
2022/11/21 09:02:21;;;;;;;5.10;0.30;;;16.90;53.10;;;;;;5109805;28;20134;-64
2022/11/21 09:04:48;;;;;;;6.47;0.55;;;16.80;53.00;;;;;;5110102;28;20866;-65
2022/11/21 09:07:15;;;;;;;4.95;0.93;;;16.80;52.90;;;;;;5109930;28;20051;-65
2022/11/21 09:09:42;;;;;;;2.47;0.25;;;16.90;52.90;;;;;;5109725;28;20043;-65
2022/11/21 09:12:09;;;;;;;3.20;0.80;;;16.90;53.50;;;;;;5109544;28;20130;-65
2022/11/21 09:20:08;;;;;;;1.92;0.22;;;16.90;52.80;;;;;;5108993;28;20499;-64
2022/11/21 09:22:35;;;;;;;9.73;0.50;;;16.90;53.30;;;;;;5108943;28;20118;-65
2022/11/21 09:25:02;;;;;;;4.32;0.30;;;16.90;52.70;;;;;;5090895;28;20035;-65
2022/11/21 09:27:30;;;;;;;4.45;0.35;;;16.90;52.60;;;;;;5109342;28;20064;-66
2022/11/21 09:29:58;;;;;;;4.72;0.50;;;17.00;52.60;;;;;;5109016;28;20118;-66
2022/11/21 09:32:25;;;;;;;4.07;0.30;;;17.00;52.50;;;;;;5108849;28;20094;-67
2022/11/21 09:34:52;;;;;;;3.00;0.57;;;17.00;52.40;;;;;;5101714;28;20050;-67
2022/11/21 09:37:19;;;;;;;7.70;0.63;;;17.00;52.30;;;;;;5088798;28;20071;-67
2022/11/21 09:39:46;;;;;;;4.03;0.30;;;17.00;52.30;;;;;;5088667;28;20419;-67
2022/11/21 09:42:31;;;;;;;5.95;0.50;;;17.00;52.30;;;;;;5088672;28;20619;-66
2022/11/21 09:45:13;;;;;;;3.95;0.70;;;17.00;52.20;;;;;;5074379;28;20574;-66
2022/11/21 09:47:44;;;;;;;11.20;1.95;;;17.00;52.20;;;;;;5108677;28;20071;-66
2022/11/21 09:50:26;;;;;;;2.55;0.40;;;17.00;52.30;;;;;;5108905;28;20067;-67
2022/11/21 09:52:58;;;;;;;7.75;0.98;;;17.00;52.20;;;;;;5108831;28;20444;-67
2022/11/21 09:55:41;;;;;;;2.80;0.22;;;17.00;52.30;;;;;;5108696;28;20044;-67
2022/11/21 09:58:19;;;;;;;4.80;0.43;;;17.00;52.20;;;;;;5108515;28;20051;-67
2022/11/21 10:00:51;;;;;;;2.85;0.70;;;17.00;52.30;;;;;;5108587;28;20043;-67
2022/11/21 10:03:20;;;;;;;3.60;0.32;;;17.00;52.30;;;;;;5108709;28;20134;-67
2022/11/21 10:05:51;;;;;;;2.28;0.57;;;17.00;52.70;;;;;;5108571;28;20036;-67
2022/11/21 10:08:29;;;;;;;4.07;0.93;;;17.00;52.30;;;;;;5108657;28;20128;-67
2022/11/21 10:11:05;;;;;;;2.05;0.43;;;17.00;52.20;;;;;;5108218;28;20507;-67
2022/11/21 10:13:46;;;;;;;3.28;0.20;;;17.00;52.20;;;;;;5108259;28;20499;-67
2022/11/21 10:16:21;;;;;;;4.28;0.85;;;17.00;52.20;;;;;;5116056;27;20073;-66
2022/11/21 10:19:08;;;;;;;1.50;0.35;;;17.00;52.20;;;;;;5129054;27;20043;-67
2022/11/21 10:22:21;;;;;;;8.30;0.35;;;17.00;52.10;;;;;;5128784;27;20027;-67
2022/11/21 10:24:56;;;;;;;3.47;0.57;;;17.00;52.10;;;;;;5090325;28;20142;-67
2022/11/21 10:27:34;;;;;;;1.95;0.40;;;17.00;52.20;;;;;;5087636;28;20144;-68
2022/11/21 10:30:04;;;;;;;2.65;0.43;;;17.00;52.10;;;;;;5088117;28;20119;-67
2022/11/21 10:32:37;;;;;;;5.00;0.20;;;17.00;52.10;;;;;;5087916;28;20043;-67
2022/11/21 10:35:14;;;;;;;6.82;0.30;;;17.10;52.10;;;;;;5092142;28;20044;-67
2022/11/21 10:37:46;;;;;;;4.97;1.05;;;17.10;52.10;;;;;;5092332;28;20508;-68
2022/11/21 10:40:30;;;;;;;2.20;0.35;;;17.10;52.00;;;;;;5092481;28;20134;-67
2022/11/21 10:45:14;;;;;;;1.55;0.20;;;17.10;52.00;;;;;;5091765;28;20043;-67
2022/11/21 10:45:49;;;;;;;3.30;0.57;;;17.10;52.00;;;;;;5103403;28;20672;-67
2022/11/21 10:48:17;;;;;;;4.25;0.30;;;17.10;52.00;;;;;;5112160;28;20660;-67
2022/11/21 10:50:59;;;;;;;5.45;0.20;;;17.10;52.50;;;;;;5112187;28;20122;-68
2022/11/21 10:56:13;;;;;;;2.20;0.38;;;17.10;52.00;;;;;;5111877;28;20047;-68
2022/11/21 10:58:43;;;;;;;1.00;0.55;;;17.10;51.90;;;;;;5112036;28;20040;-67
2022/11/21 11:01:25;;;;;;;1.60;0.20;;;17.10;51.80;;;;;;5111874;28;20114;-68
2022/11/21 11:04:15;;;;;;;4.90;0.80;;;17.10;51.80;;;;;;5112020;28;20508;-67
2022/11/21 11:06:44;;;;;;;3.00;0.40;;;17.10;51.80;;;;;;5112309;28;20086;-68
2022/11/21 11:09:28;;;;;;;3.35;0.82;;;17.10;51.80;;;;;;5112128;28;20138;-67
2022/11/21 11:12:21;;;;;;;9.02;0.28;;;17.10;51.80;;;;;;5108103;28;20046;-68
2022/11/21 11:14:51;;;;;;;4.72;0.10;;;17.10;51.70;;;;;;5094629;28;20138;-68
2022/11/21 11:17:27;;;;;;;3.25;0.28;;;17.10;51.80;;;;;;5111944;28;20036;-67
2022/11/21 11:20:04;;;;;;;1.80;0.20;;;17.10;51.80;;;;;;5111612;28;20044;-67
2022/11/21 11:22:32;;;;;;;3.63;0.30;;;17.10;51.80;;;;;;5119635;27;20058;-68
2022/11/21 11:24:59;;;;;;;4.38;0.55;;;17.10;51.80;;;;;;5118399;27;20040;-67
2022/11/21 11:27:29;;;;;;;6.75;0.47;;;17.10;51.80;;;;;;5111618;28;20047;-67
2022/11/21 11:29:56;;;;;;;4.28;0.43;;;17.10;51.80;;;;;;5111331;28;20130;-67
2022/11/21 11:32:23;;;;;;;3.55;0.35;;;17.10;51.90;;;;;;5111393;28;20043;-67
2022/11/21 11:34:58;;;;;;;2.25;0.40;;;17.10;51.90;;;;;;5111474;28;20054;-68
2022/11/21 11:37:35;;;;;;;5.25;1.25;;;17.10;51.90;;;;;;5093074;28;20048;-67
2022/11/21 11:40:15;;;;;;;2.00;0.40;;;17.10;51.90;;;;;;5110965;28;20066;-68
2022/11/21 11:49:02;;;;;;;2.85;0.40;;;17.10;52.00;;;;;;5110984;28;20043;-67
2022/11/21 11:51:36;;;;;;;4.03;0.73;;;17.00;52.00;;;;;;5110820;28;20070;-67
2022/11/21 11:54:16;;;;;;;2.03;0.45;;;17.00;52.00;;;;;;5110977;28;20063;-68
2022/11/21 11:56:44;;;;;;;2.28;0.50;;;17.10;52.00;;;;;;5110797;28;20090;-67
2022/11/21 11:59:18;;;;;;;2.90;0.35;;;17.10;52.10;;;;;;5110724;28;20389;-67
2022/11/21 12:01:51;;;;;;;5.15;0.30;;;17.00;52.00;;;;;;5092594;28;20052;-67
2022/11/21 12:04:20;;;;;;;2.22;0.85;;;17.10;52.10;;;;;;5090889;28;20056;-67
2022/11/21 12:06:52;;;;;;;5.50;0.30;;;17.10;52.10;;;;;;5090419;28;20116;-67
2022/11/21 12:09:28;;;;;;;3.03;1.00;;;17.10;52.00;;;;;;5071952;28;20134;-67
2022/11/21 12:12:10;;;;;;;8.10;0.77;;;17.10;52.00;;;;;;5116119;27;20451;-68
2022/11/21 12:17:55;;;;;;;3.65;0.38;;;17.10;51.90;;;;;;5122325;27;20047;-67
2022/11/21 12:20:28;;;;;;;3.53;0.60;;;17.10;52.00;;;;;;5131154;27;20039;-68
2022/11/21 12:22:56;;;;;;;3.88;0.60;;;17.10;52.00;;;;;;5130775;27;20638;-67
2022/11/21 12:25:29;;;;;;;4.90;1.15;;;17.10;51.90;;;;;;5131033;27;20031;-69
2022/11/21 12:27:57;;;;;;;6.15;0.45;;;17.10;51.90;;;;;;5130787;27;20054;-67
2022/11/21 12:30:50;;;;;;;2.67;0.30;;;17.00;51.80;;;;;;5130916;27;20518;-67
2022/11/21 12:33:21;;;;;;;4.35;0.52;;;17.00;51.80;;;;;;5122683;27;20039;-68
2022/11/21 12:36:10;;;;;;;2.85;0.30;;;17.10;51.90;;;;;;5130762;27;20039;-67
2022/11/21 12:38:57;;;;;;;3.70;0.30;;;17.10;51.90;;;;;;5130512;27;20061;-67
2022/11/21 12:44:31;;;;;;;3.30;0.47;;;17.00;52.00;;;;;;5130472;27;20061;-67
2022/11/21 12:47:13;;;;;;;4.93;0.70;;;17.00;52.00;;;;;;5089721;28;20120;-67
2022/11/21 12:55:34;;;;;;;2.05;0.50;;;17.00;52.10;;;;;;5129892;27;20118;-69
2022/11/21 12:58:27;;;;;;;2.47;0.30;;;17.00;52.10;;;;;;5130633;27;20043;-69
2022/11/21 13:01:15;;;;;;;3.80;0.40;;;17.00;52.10;;;;;;5125405;27;20050;-67
2022/11/21 13:03:50;;;;;;;4.60;0.65;;;17.00;52.10;;;;;;5131129;27;20148;-67
2022/11/21 13:06:22;;;;;;;3.00;0.60;;;17.00;52.10;;;;;;5130583;27;20563;-67
2022/11/21 13:08:51;;;;;;;9.93;0.60;;;17.00;52.10;;;;;;5130665;27;20050;-68
2022/11/21 13:14:21;;;;;;;3.83;0.80;;;17.00;52.10;;;;;;5111129;28;20130;-67
2022/11/21 13:16:57;;;;;;;4.25;0.20;;;17.00;52.20;;;;;;5109865;28;20039;-68
2022/11/21 13:19:30;;;;;;;6.47;1.10;;;17.00;52.20;;;;;;5109601;28;20442;-67
2022/11/21 13:21:57;;;;;;;4.80;0.85;;;17.00;52.20;;;;;;5108839;28;20067;-68
2022/11/21 13:24:56;;;;;;;3.10;0.25;;;17.00;52.20;;;;;;5109228;28;20039;-68
2022/11/21 13:27:35;;;;;;;3.60;0.82;;;17.00;52.30;;;;;;5107955;28;20043;-67
2022/11/21 13:30:22;;;;;;;1.75;0.45;;;17.00;52.40;;;;;;5109200;28;20391;-69
2022/11/21 13:32:51;;;;;;;1.65;0.32;;;17.00;52.30;;;;;;5108998;28;20059;-68
2022/11/21 13:35:51;;;;;;;4.43;0.40;;;17.00;52.40;;;;;;5108908;28;20555;-67
2022/11/21 13:38:18;;;;;;;3.65;0.80;;;17.00;52.30;;;;;;5108495;28;20265;-68
2022/11/21 13:43:27;;;;;;;4.38;0.30;;;17.00;52.70;;;;;;5108081;28;20464;-68